Nashua, NH

4:32 AM EST on February 07, 2016 (GMT -0500)
Twin Ponds, Spit Brook Road | | Change Station
CLOSE
Current Station
Personal Weather Station
Location: Nashua, NH
Elevation: 215 ft
Nearby Weather Stations

Elev 215 ft 42.71 °N, 71.45 °W | Updated 139 days ago

Clear
Clear
26 °F
Feels Like 26 °F
N
2
Wind Variable Wind from WSW
Gusts mph

Today
High -- | Low -- °F
--% Chance of Precip.
Yesterday
High -- | Low -- °F
Precip. -- in
Pressure 30.43 in
Visibility 7.0 miles
Clouds Clear
Dew Point 19 °F
Humidity 77%
Rainfall in
Snow Depth Not available.
6:54 AM 5:06 PM
Waning Crescent, 2% visible
METAR KASH 070855Z 00000KT 7SM CLR M08/M09 A3015 RMK AO2 SLP302 PWINO FZRANO RVRNO
Pressure 30.43 in
Visibility 7.0 miles
Clouds Clear
Dew Point 19 °F
Humidity 77%
Rainfall in
Snow Depth Not available.
6:54 AM 5:06 PM
Waning Crescent, 2% visible
METAR KASH 070855Z 00000KT 7SM CLR M08/M09 A3015 RMK AO2 SLP302 PWINO FZRANO RVRNO

10-Day Weather Forecast

Almanac

Astronomy

Feb. 07, 2016 Rise Set
Actual Time
Civil Twilight
Nautical Twilight
Astronomical Twilight
Moon
Length of Visible Light
Length of Day
Tomorrow will be .
, % of the Moon is Illuminated

Today's Extremes

State Highs State Lows

Community

WunderPhotos

Upload Photos

1,891,171 photos uploaded!

WunderBlog® & News

Nearby

Air Quality

  Air Quality AQ Index Pollutant
Not available.

Snow Depth

Station Depth Elevation

Earthquake Activity

City Distance Mag. Time & Date
Minimum magnitude displayed is 2.5.

Coastal Water Temperatures

Place Temperature

Stations

Nearby Weather Stations

Station Location Temp. Windchill Dew Point Humidity Wind Precip. Elev Updated Type
                   

Watches & Warnings

There are currently no watches in effect.